FIN7PL EFHK-EFKT
Flight info
| Callsign | FIN7PL |
|---|---|
| Flight time | 1h 14m |
| Altitude | 38000 |
| Route | TEVRU Y75 EVIMI |
| Aircraft | A320/M-SDE3FGHIRWY/LB1 |
Departure
| Time | 2026-04-25 18:24 |
|---|---|
| Airport | Helsinki Vantaa Airport (EFHK) |
Arrival
| Time | 2026-04-25 19:39 |
|---|---|
| Airport | Kittilä International Airport (EFKT) |
| Time | Latitude | Longitude | Altitude | Speed | Heading |
|---|---|---|---|---|---|
| 2026-04-25 17:54 | 60.31871 | 24.96546 | 167 ft | 0 kts | 137° |
| 2026-04-25 18:14 | 60.31871 | 24.96545 | 167 ft | 1 kts | 137° |
| 2026-04-25 18:15 | 60.31889 | 24.96514 | 167 ft | 4 kts | 137° |
| 2026-04-25 18:15 | 60.31909 | 24.96485 | 167 ft | 4 kts | 173° |
| 2026-04-25 18:15 | 60.31932 | 24.96495 | 167 ft | 4 kts | 223° |
| 2026-04-25 18:15 | 60.31939 | 24.96508 | 167 ft | 0 kts | 227° |
| 2026-04-25 18:16 | 60.31939 | 24.96509 | 167 ft | 0 kts | 227° |
| 2026-04-25 18:19 | 60.31938 | 24.96507 | 167 ft | 2 kts | 227° |
| 2026-04-25 18:19 | 60.31918 | 24.96463 | 167 ft | 5 kts | 227° |
| 2026-04-25 18:19 | 60.31890 | 24.96402 | 167 ft | 7 kts | 227° |
| 2026-04-25 18:19 | 60.31858 | 24.96304 | 167 ft | 10 kts | 249° |
| 2026-04-25 18:20 | 60.31864 | 24.96155 | 167 ft | 12 kts | 299° |
| 2026-04-25 18:20 | 60.31931 | 24.96022 | 168 ft | 16 kts | 317° |
| 2026-04-25 18:20 | 60.32017 | 24.95861 | 173 ft | 18 kts | 316° |
| 2026-04-25 18:20 | 60.32120 | 24.95669 | 172 ft | 23 kts | 317° |
| 2026-04-25 18:21 | 60.32233 | 24.95461 | 175 ft | 21 kts | 318° |
| 2026-04-25 18:21 | 60.32342 | 24.95278 | 177 ft | 20 kts | 331° |
| 2026-04-25 18:21 | 60.32484 | 24.95179 | 179 ft | 22 kts | 342° |
| 2026-04-25 18:21 | 60.32631 | 24.95080 | 180 ft | 22 kts | 341° |
| 2026-04-25 18:22 | 60.32782 | 24.94985 | 177 ft | 24 kts | 342° |
| 2026-04-25 18:22 | 60.32836 | 24.94949 | 175 ft | 25 kts | 341° |
| 2026-04-25 18:22 | 60.33025 | 24.94664 | 181 ft | 18 kts | 318° |
| 2026-04-25 18:22 | 60.33108 | 24.94513 | 201 ft | 14 kts | 313° |
| 2026-04-25 18:23 | 60.33104 | 24.94360 | 205 ft | 5 kts | 226° |
| 2026-04-25 18:23 | 60.33103 | 24.94358 | 205 ft | 0 kts | 226° |
| 2026-04-25 18:23 | 60.33080 | 24.94309 | 193 ft | 29 kts | 225° |
| 2026-04-25 18:23 | 60.32759 | 24.93602 | 181 ft | 103 kts | 226° |
| 2026-04-25 18:24 | 60.32130 | 24.92246 | 177 ft | 157 kts | 231° |
| 2026-04-25 18:24 | 60.31378 | 24.90583 | 745 ft | 161 kts | 236° |
| 2026-04-25 18:24 | 60.30657 | 24.88859 | 1462 ft | 161 kts | 249° |
| 2026-04-25 18:24 | 60.30225 | 24.86758 | 1806 ft | 167 kts | 273° |
| 2026-04-25 18:25 | 60.30263 | 24.84381 | 2103 ft | 176 kts | 295° |
| 2026-04-25 18:25 | 60.30756 | 24.82019 | 2428 ft | 191 kts | 304° |
| 2026-04-25 18:25 | 60.31362 | 24.79454 | 2815 ft | 215 kts | 303° |
| 2026-04-25 18:25 | 60.32046 | 24.76596 | 3316 ft | 235 kts | 303° |
| 2026-04-25 18:26 | 60.32825 | 24.73665 | 4108 ft | 244 kts | 304° |
| 2026-04-25 18:26 | 60.33676 | 24.70595 | 5003 ft | 250 kts | 304° |
| 2026-04-25 18:26 | 60.34534 | 24.67527 | 5966 ft | 252 kts | 303° |
| 2026-04-25 18:26 | 60.35584 | 24.64726 | 6767 ft | 255 kts | 321° |
| 2026-04-25 18:27 | 60.37111 | 24.62960 | 7727 ft | 254 kts | 342° |
| 2026-04-25 18:27 | 60.38876 | 24.62565 | 8556 ft | 262 kts | 5° |
| 2026-04-25 18:27 | 60.40673 | 24.63333 | 9493 ft | 264 kts | 10° |
| 2026-04-25 18:27 | 60.42535 | 24.64203 | 9864 ft | 286 kts | 11° |
| 2026-04-25 18:28 | 60.44551 | 24.65124 | 10205 ft | 306 kts | 11° |
| 2026-04-25 18:28 | 60.46650 | 24.66084 | 10864 ft | 313 kts | 10° |
| 2026-04-25 18:28 | 60.48062 | 24.66732 | 11397 ft | 315 kts | 9° |
| 2026-04-25 18:29 | 60.52430 | 24.68737 | 12806 ft | 328 kts | 9° |
| 2026-04-25 18:29 | 60.54671 | 24.69764 | 13479 ft | 334 kts | 10° |
| 2026-04-25 18:30 | 60.61661 | 24.72971 | 15310 ft | 351 kts | 12° |
| 2026-04-25 18:30 | 60.64054 | 24.74074 | 15919 ft | 356 kts | 10° |
| 2026-04-25 18:30 | 60.66490 | 24.75198 | 16550 ft | 360 kts | 11° |
| 2026-04-25 18:30 | 60.68949 | 24.76339 | 17168 ft | 365 kts | 12° |
| 2026-04-25 18:31 | 60.71444 | 24.77504 | 17773 ft | 370 kts | 11° |
| 2026-04-25 18:31 | 60.73968 | 24.78679 | 18265 ft | 375 kts | 12° |
| 2026-04-25 18:31 | 60.76530 | 24.79869 | 18843 ft | 377 kts | 11° |
| 2026-04-25 18:31 | 60.79106 | 24.81064 | 19397 ft | 382 kts | 11° |
| 2026-04-25 18:32 | 60.81715 | 24.82265 | 19907 ft | 387 kts | 8° |
| 2026-04-25 18:32 | 60.84387 | 24.83008 | 20396 ft | 391 kts | 4° |
| 2026-04-25 18:32 | 60.87103 | 24.83642 | 20925 ft | 394 kts | 3° |
| 2026-04-25 18:32 | 60.89846 | 24.84289 | 21411 ft | 400 kts | 4° |
| 2026-04-25 18:33 | 60.92626 | 24.84949 | 21952 ft | 403 kts | 4° |
| 2026-04-25 18:33 | 60.95427 | 24.85612 | 22533 ft | 406 kts | 5° |
| 2026-04-25 18:33 | 60.98250 | 24.86274 | 23081 ft | 409 kts | 3° |
| 2026-04-25 18:33 | 61.01085 | 24.86937 | 23535 ft | 411 kts | 3° |
| 2026-04-25 18:34 | 61.03928 | 24.87610 | 24026 ft | 412 kts | 5° |
| 2026-04-25 18:34 | 61.06777 | 24.88295 | 24491 ft | 413 kts | 3° |
| 2026-04-25 18:34 | 61.09616 | 24.88986 | 24868 ft | 417 kts | 3° |
| 2026-04-25 18:34 | 61.12501 | 24.89684 | 25276 ft | 419 kts | 5° |
| 2026-04-25 18:35 | 61.15407 | 24.90377 | 25731 ft | 421 kts | 3° |
| 2026-04-25 18:35 | 61.18332 | 24.91074 | 26071 ft | 425 kts | 2° |
| 2026-04-25 18:35 | 61.21282 | 24.91782 | 26407 ft | 428 kts | 5° |
| 2026-04-25 18:35 | 61.24257 | 24.92503 | 26817 ft | 430 kts | 4° |
| 2026-04-25 18:36 | 61.27232 | 24.93230 | 27206 ft | 432 kts | 3° |
| 2026-04-25 18:36 | 61.30228 | 24.93965 | 27544 ft | 435 kts | 2° |
| 2026-04-25 18:36 | 61.33241 | 24.94697 | 27939 ft | 436 kts | 4° |
| 2026-04-25 18:36 | 61.36264 | 24.95429 | 28318 ft | 439 kts | 5° |
| 2026-04-25 18:37 | 61.39298 | 24.96165 | 28647 ft | 441 kts | 3° |
| 2026-04-25 18:37 | 61.42358 | 24.96910 | 28990 ft | 443 kts | 3° |
| 2026-04-25 18:37 | 61.45432 | 24.97664 | 29363 ft | 445 kts | 3° |
| 2026-04-25 18:37 | 61.48516 | 24.98416 | 29610 ft | 448 kts | 3° |
| 2026-04-25 18:38 | 61.51627 | 24.99179 | 29872 ft | 451 kts | 2° |
| 2026-04-25 18:38 | 61.54748 | 24.99952 | 30129 ft | 452 kts | 2° |
| 2026-04-25 18:38 | 61.57879 | 25.00729 | 30373 ft | 454 kts | 2° |
| 2026-04-25 18:38 | 61.61031 | 25.01470 | 30602 ft | 456 kts | 359° |
| 2026-04-25 18:39 | 61.64196 | 25.01675 | 30842 ft | 456 kts | 358° |
| 2026-04-25 18:39 | 61.67377 | 25.01788 | 31116 ft | 456 kts | 357° |
| 2026-04-25 18:39 | 61.70549 | 25.01904 | 31446 ft | 456 kts | 359° |
| 2026-04-25 18:39 | 61.73677 | 25.02025 | 31763 ft | 455 kts | 359° |
| 2026-04-25 18:40 | 61.76884 | 25.02147 | 32097 ft | 455 kts | 359° |
| 2026-04-25 18:40 | 61.80054 | 25.02264 | 32393 ft | 455 kts | 357° |
| 2026-04-25 18:40 | 61.83220 | 25.02375 | 32743 ft | 455 kts | 359° |
| 2026-04-25 18:40 | 61.86377 | 25.02489 | 33115 ft | 453 kts | 359° |
| 2026-04-25 18:41 | 61.89528 | 25.02607 | 33454 ft | 453 kts | 358° |
| 2026-04-25 18:41 | 61.92677 | 25.02734 | 33747 ft | 452 kts | 358° |
| 2026-04-25 18:41 | 61.95787 | 25.02863 | 34002 ft | 452 kts | 359° |
| 2026-04-25 18:41 | 61.98931 | 25.02990 | 34234 ft | 452 kts | 358° |
| 2026-04-25 18:42 | 62.02068 | 25.03109 | 34475 ft | 451 kts | 358° |
| 2026-04-25 18:42 | 62.04191 | 25.03190 | 34639 ft | 451 kts | 358° |
| 2026-04-25 18:42 | 62.08341 | 25.03353 | 34915 ft | 450 kts | 359° |
| 2026-04-25 18:42 | 62.11476 | 25.03476 | 35139 ft | 450 kts | 359° |
| 2026-04-25 18:43 | 62.14611 | 25.03594 | 35354 ft | 450 kts | 358° |
| 2026-04-25 18:43 | 62.17741 | 25.03703 | 35545 ft | 450 kts | 358° |
| 2026-04-25 18:43 | 62.20876 | 25.03813 | 35718 ft | 450 kts | 358° |
| 2026-04-25 18:43 | 62.24008 | 25.03936 | 35901 ft | 450 kts | 358° |
| 2026-04-25 18:44 | 62.27138 | 25.04069 | 36085 ft | 449 kts | 358° |
| 2026-04-25 18:44 | 62.30261 | 25.04200 | 36246 ft | 449 kts | 358° |
| 2026-04-25 18:44 | 62.33389 | 25.04321 | 36402 ft | 449 kts | 359° |
| 2026-04-25 18:44 | 62.36515 | 25.04434 | 36571 ft | 448 kts | 358° |
| 2026-04-25 18:45 | 62.39632 | 25.04548 | 36718 ft | 448 kts | 359° |
| 2026-04-25 18:45 | 62.42710 | 25.04666 | 36861 ft | 448 kts | 358° |
| 2026-04-25 18:45 | 62.45830 | 25.04789 | 37010 ft | 448 kts | 358° |
| 2026-04-25 18:45 | 62.48938 | 25.04914 | 37161 ft | 447 kts | 359° |
| 2026-04-25 18:46 | 62.52045 | 25.05038 | 37298 ft | 447 kts | 359° |
| 2026-04-25 18:46 | 62.55154 | 25.05150 | 37462 ft | 445 kts | 359° |
| 2026-04-25 18:46 | 62.61344 | 25.05371 | 37518 ft | 444 kts | 359° |
| 2026-04-25 18:47 | 62.67532 | 25.05610 | 37523 ft | 444 kts | 359° |
| 2026-04-25 18:47 | 62.73749 | 25.05862 | 37544 ft | 444 kts | 359° |
| 2026-04-25 18:48 | 62.79936 | 25.06110 | 37541 ft | 444 kts | 359° |
| 2026-04-25 18:48 | 62.86087 | 25.06361 | 37549 ft | 445 kts | 359° |
| 2026-04-25 18:49 | 62.92280 | 25.06625 | 37556 ft | 445 kts | 359° |
| 2026-04-25 18:49 | 62.98483 | 25.06872 | 37556 ft | 445 kts | 358° |
| 2026-04-25 18:50 | 63.04682 | 25.07114 | 37570 ft | 445 kts | 358° |
| 2026-04-25 18:50 | 63.10884 | 25.07352 | 37581 ft | 446 kts | 359° |
| 2026-04-25 18:51 | 63.16044 | 25.07571 | 37580 ft | 446 kts | 358° |
| 2026-04-25 18:51 | 63.23307 | 25.07872 | 37577 ft | 447 kts | 359° |
| 2026-04-25 18:52 | 63.29525 | 25.08124 | 37599 ft | 447 kts | 359° |
| 2026-04-25 18:52 | 63.35751 | 25.08381 | 37605 ft | 448 kts | 359° |
| 2026-04-25 18:53 | 63.41978 | 25.08633 | 37619 ft | 448 kts | 359° |
| 2026-04-25 18:53 | 63.48217 | 25.08889 | 37610 ft | 448 kts | 359° |
| 2026-04-25 18:54 | 63.57561 | 25.09255 | 37599 ft | 448 kts | 359° |
| 2026-04-25 18:55 | 63.63794 | 25.09521 | 37608 ft | 447 kts | 359° |
| 2026-04-25 18:55 | 63.67541 | 25.09674 | 37609 ft | 448 kts | 359° |
| 2026-04-25 18:56 | 63.73763 | 25.09940 | 37604 ft | 447 kts | 359° |
| 2026-04-25 18:56 | 63.79993 | 25.10205 | 37611 ft | 447 kts | 359° |
| 2026-04-25 18:57 | 63.86218 | 25.10462 | 37607 ft | 447 kts | 359° |
| 2026-04-25 18:57 | 63.92438 | 25.10718 | 37608 ft | 447 kts | 359° |
| 2026-04-25 18:58 | 63.98661 | 25.10978 | 37607 ft | 447 kts | 359° |
| 2026-04-25 18:58 | 64.07992 | 25.11376 | 37612 ft | 447 kts | 359° |
| 2026-04-25 18:59 | 64.20427 | 25.11920 | 37623 ft | 446 kts | 359° |
| 2026-04-25 19:00 | 64.29708 | 25.12303 | 37617 ft | 446 kts | 359° |
| 2026-04-25 19:01 | 64.39023 | 25.12721 | 37618 ft | 446 kts | 359° |
| 2026-04-25 19:01 | 64.45231 | 25.12975 | 37628 ft | 447 kts | 359° |
| 2026-04-25 19:02 | 64.54564 | 25.12952 | 37633 ft | 447 kts | 358° |
| 2026-04-25 19:03 | 64.61838 | 25.12886 | 37628 ft | 447 kts | 358° |
| 2026-04-25 19:03 | 64.70126 | 25.12897 | 37628 ft | 447 kts | 358° |
| 2026-04-25 19:04 | 64.79463 | 25.12918 | 37647 ft | 447 kts | 358° |
| 2026-04-25 19:05 | 64.91891 | 25.12933 | 37638 ft | 446 kts | 358° |
| 2026-04-25 19:06 | 64.98092 | 25.12921 | 37639 ft | 445 kts | 358° |
| 2026-04-25 19:06 | 65.07392 | 25.12911 | 37637 ft | 445 kts | 358° |
| 2026-04-25 19:07 | 65.16680 | 25.12925 | 37641 ft | 445 kts | 358° |
| 2026-04-25 19:08 | 65.25969 | 25.12891 | 37633 ft | 445 kts | 358° |
| 2026-04-25 19:09 | 65.35209 | 25.12841 | 36975 ft | 444 kts | 358° |
| 2026-04-25 19:09 | 65.36250 | 25.12834 | 36849 ft | 444 kts | 358° |
| 2026-04-25 19:09 | 65.44481 | 25.12777 | 35820 ft | 444 kts | 358° |
| 2026-04-25 19:10 | 65.47564 | 25.12761 | 35454 ft | 442 kts | 359° |
| 2026-04-25 19:10 | 65.49638 | 25.12755 | 35200 ft | 440 kts | 359° |
| 2026-04-25 19:10 | 65.52687 | 25.12750 | 34828 ft | 437 kts | 359° |
| 2026-04-25 19:10 | 65.55717 | 25.12737 | 34472 ft | 434 kts | 359° |
| 2026-04-25 19:11 | 65.58691 | 25.12723 | 34112 ft | 431 kts | 359° |
| 2026-04-25 19:11 | 65.61677 | 25.12712 | 33748 ft | 428 kts | 359° |
| 2026-04-25 19:11 | 65.64679 | 25.12694 | 33359 ft | 425 kts | 359° |
| 2026-04-25 19:11 | 65.67622 | 25.12669 | 32933 ft | 421 kts | 359° |
| 2026-04-25 19:12 | 65.70536 | 25.12646 | 32528 ft | 417 kts | 359° |
| 2026-04-25 19:12 | 65.73386 | 25.12629 | 32124 ft | 413 kts | 359° |
| 2026-04-25 19:12 | 65.76246 | 25.12611 | 31722 ft | 409 kts | 359° |
| 2026-04-25 19:12 | 65.79081 | 25.12596 | 31326 ft | 405 kts | 359° |
| 2026-04-25 19:13 | 65.81896 | 25.12579 | 30934 ft | 402 kts | 359° |
| 2026-04-25 19:13 | 65.84678 | 25.12560 | 30547 ft | 398 kts | 359° |
| 2026-04-25 19:13 | 65.87436 | 25.12541 | 30171 ft | 395 kts | 359° |
| 2026-04-25 19:13 | 65.90173 | 25.12525 | 29798 ft | 391 kts | 359° |
| 2026-04-25 19:14 | 65.92884 | 25.12514 | 29349 ft | 388 kts | 359° |
| 2026-04-25 19:14 | 65.94668 | 25.12511 | 29038 ft | 386 kts | 359° |
| 2026-04-25 19:14 | 65.98245 | 25.12505 | 28425 ft | 381 kts | 359° |
| 2026-04-25 19:14 | 66.00885 | 25.12497 | 27974 ft | 378 kts | 359° |
| 2026-04-25 19:15 | 66.03511 | 25.12480 | 27525 ft | 375 kts | 359° |
| 2026-04-25 19:15 | 66.06107 | 25.12460 | 27083 ft | 372 kts | 359° |
| 2026-04-25 19:15 | 66.08683 | 25.12442 | 26660 ft | 369 kts | 359° |
| 2026-04-25 19:15 | 66.11241 | 25.12406 | 26231 ft | 366 kts | 358° |
| 2026-04-25 19:16 | 66.13773 | 25.12165 | 25813 ft | 362 kts | 355° |
| 2026-04-25 19:16 | 66.16244 | 25.11752 | 25414 ft | 359 kts | 354° |
| 2026-04-25 19:16 | 66.18729 | 25.11252 | 25003 ft | 357 kts | 354° |
| 2026-04-25 19:16 | 66.21196 | 25.10737 | 24604 ft | 355 kts | 354° |
| 2026-04-25 19:17 | 66.23650 | 25.10242 | 24206 ft | 353 kts | 354° |
| 2026-04-25 19:17 | 66.26090 | 25.09778 | 23826 ft | 351 kts | 354° |
| 2026-04-25 19:17 | 66.28518 | 25.09339 | 23439 ft | 349 kts | 354° |
| 2026-04-25 19:17 | 66.30933 | 25.08915 | 23023 ft | 347 kts | 354° |
| 2026-04-25 19:18 | 66.33339 | 25.08500 | 22558 ft | 345 kts | 354° |
| 2026-04-25 19:18 | 66.35726 | 25.08088 | 22096 ft | 342 kts | 354° |
| 2026-04-25 19:18 | 66.38090 | 25.07676 | 21643 ft | 340 kts | 354° |
| 2026-04-25 19:18 | 66.40439 | 25.07264 | 21197 ft | 337 kts | 354° |
| 2026-04-25 19:19 | 66.42772 | 25.06854 | 20759 ft | 335 kts | 354° |
| 2026-04-25 19:19 | 66.45091 | 25.06440 | 20325 ft | 333 kts | 354° |
| 2026-04-25 19:19 | 66.47394 | 25.06028 | 19900 ft | 331 kts | 354° |
| 2026-04-25 19:19 | 66.48910 | 25.05759 | 19621 ft | 329 kts | 354° |
| 2026-04-25 19:20 | 66.51961 | 25.05214 | 19069 ft | 327 kts | 354° |
| 2026-04-25 19:20 | 66.54222 | 25.04807 | 18669 ft | 325 kts | 354° |
| 2026-04-25 19:20 | 66.56469 | 25.04403 | 18261 ft | 323 kts | 355° |
| 2026-04-25 19:20 | 66.58708 | 25.04009 | 17860 ft | 322 kts | 355° |
| 2026-04-25 19:21 | 66.60933 | 25.03616 | 17390 ft | 320 kts | 355° |
| 2026-04-25 19:21 | 66.65352 | 25.02815 | 16481 ft | 317 kts | 355° |
| 2026-04-25 19:21 | 66.67550 | 25.02410 | 16030 ft | 316 kts | 355° |
| 2026-04-25 19:22 | 66.69734 | 25.02007 | 15596 ft | 314 kts | 355° |
| 2026-04-25 19:22 | 66.71910 | 25.01606 | 15162 ft | 313 kts | 355° |
| 2026-04-25 19:22 | 66.76234 | 25.00820 | 14321 ft | 310 kts | 356° |
| 2026-04-25 19:23 | 66.78381 | 25.00430 | 13914 ft | 308 kts | 356° |
| 2026-04-25 19:23 | 66.82609 | 24.99663 | 13055 ft | 304 kts | 356° |
| 2026-04-25 19:23 | 66.84739 | 24.99277 | 12594 ft | 302 kts | 356° |
| 2026-04-25 19:24 | 66.86831 | 24.98894 | 12145 ft | 300 kts | 356° |
| 2026-04-25 19:24 | 66.88908 | 24.98513 | 11705 ft | 298 kts | 356° |
| 2026-04-25 19:24 | 66.92983 | 24.97750 | 10841 ft | 293 kts | 356° |
| 2026-04-25 19:25 | 66.97023 | 24.97004 | 9969 ft | 288 kts | 356° |
| 2026-04-25 19:25 | 66.98970 | 24.96646 | 9681 ft | 270 kts | 356° |
| 2026-04-25 19:25 | 67.00817 | 24.96307 | 9653 ft | 264 kts | 356° |
| 2026-04-25 19:26 | 67.02648 | 24.95967 | 9655 ft | 263 kts | 356° |
| 2026-04-25 19:26 | 67.04471 | 24.95626 | 9656 ft | 263 kts | 356° |
| 2026-04-25 19:26 | 67.06295 | 24.95288 | 9662 ft | 263 kts | 356° |
| 2026-04-25 19:26 | 67.08116 | 24.94947 | 9662 ft | 263 kts | 356° |
| 2026-04-25 19:27 | 67.09932 | 24.94608 | 9503 ft | 260 kts | 356° |
| 2026-04-25 19:27 | 67.11128 | 24.94386 | 9211 ft | 260 kts | 356° |
| 2026-04-25 19:27 | 67.13534 | 24.93933 | 8643 ft | 258 kts | 356° |
| 2026-04-25 19:27 | 67.15319 | 24.93592 | 8230 ft | 257 kts | 356° |
| 2026-04-25 19:28 | 67.17096 | 24.93255 | 7832 ft | 255 kts | 356° |
| 2026-04-25 19:28 | 67.18857 | 24.92921 | 7429 ft | 253 kts | 356° |
| 2026-04-25 19:28 | 67.20612 | 24.92587 | 7002 ft | 252 kts | 356° |
| 2026-04-25 19:28 | 67.22354 | 24.92255 | 6676 ft | 249 kts | 356° |
| 2026-04-25 19:29 | 67.24075 | 24.91926 | 6654 ft | 243 kts | 356° |
| 2026-04-25 19:29 | 67.25704 | 24.91802 | 6603 ft | 227 kts | 4° |
| 2026-04-25 19:29 | 67.27241 | 24.92103 | 6469 ft | 216 kts | 4° |
| 2026-04-25 19:29 | 67.28721 | 24.92393 | 6204 ft | 210 kts | 4° |
| 2026-04-25 19:30 | 67.30169 | 24.92677 | 5934 ft | 207 kts | 4° |
| 2026-04-25 19:30 | 67.31597 | 24.92954 | 5658 ft | 205 kts | 4° |
| 2026-04-25 19:30 | 67.33017 | 24.93226 | 5384 ft | 204 kts | 4° |
| 2026-04-25 19:30 | 67.34432 | 24.93498 | 5118 ft | 204 kts | 4° |
| 2026-04-25 19:31 | 67.35842 | 24.93767 | 4848 ft | 203 kts | 4° |
| 2026-04-25 19:31 | 67.37248 | 24.94039 | 4580 ft | 202 kts | 5° |
| 2026-04-25 19:31 | 67.38647 | 24.94308 | 4309 ft | 201 kts | 5° |
| 2026-04-25 19:31 | 67.40043 | 24.94575 | 4036 ft | 201 kts | 5° |
| 2026-04-25 19:32 | 67.41432 | 24.94841 | 3875 ft | 200 kts | 5° |
| 2026-04-25 19:32 | 67.42819 | 24.95105 | 3843 ft | 200 kts | 5° |
| 2026-04-25 19:32 | 67.44208 | 24.95373 | 3853 ft | 201 kts | 5° |
| 2026-04-25 19:32 | 67.45136 | 24.95555 | 3853 ft | 201 kts | 5° |
| 2026-04-25 19:33 | 67.47003 | 24.95918 | 3853 ft | 201 kts | 5° |
| 2026-04-25 19:33 | 67.48377 | 24.96179 | 3730 ft | 199 kts | 5° |
| 2026-04-25 19:33 | 67.49774 | 24.96444 | 3439 ft | 196 kts | 5° |
| 2026-04-25 19:33 | 67.51080 | 24.96639 | 3260 ft | 181 kts | 357° |
| 2026-04-25 19:34 | 67.52299 | 24.96113 | 2962 ft | 177 kts | 349° |
| 2026-04-25 19:34 | 67.53491 | 24.95394 | 2692 ft | 172 kts | 348° |
| 2026-04-25 19:34 | 67.54613 | 24.94685 | 2592 ft | 159 kts | 348° |
| 2026-04-25 19:34 | 67.55633 | 24.94033 | 2527 ft | 142 kts | 348° |
| 2026-04-25 19:35 | 67.56559 | 24.93439 | 2523 ft | 134 kts | 349° |
| 2026-04-25 19:35 | 67.57452 | 24.92867 | 2533 ft | 130 kts | 349° |
| 2026-04-25 19:35 | 67.58330 | 24.92303 | 2540 ft | 129 kts | 349° |
| 2026-04-25 19:35 | 67.59190 | 24.91750 | 2536 ft | 129 kts | 349° |
| 2026-04-25 19:36 | 67.60060 | 24.91190 | 2533 ft | 128 kts | 349° |
| 2026-04-25 19:36 | 67.60928 | 24.90630 | 2523 ft | 129 kts | 349° |
| 2026-04-25 19:36 | 67.61802 | 24.90066 | 2404 ft | 129 kts | 349° |
| 2026-04-25 19:36 | 67.62671 | 24.89505 | 2222 ft | 129 kts | 348° |
| 2026-04-25 19:37 | 67.63538 | 24.88944 | 2033 ft | 128 kts | 348° |
| 2026-04-25 19:37 | 67.64400 | 24.88386 | 1828 ft | 127 kts | 348° |
| 2026-04-25 19:37 | 67.65260 | 24.87830 | 1598 ft | 127 kts | 347° |
| 2026-04-25 19:37 | 67.66118 | 24.87274 | 1378 ft | 127 kts | 347° |
| 2026-04-25 19:38 | 67.66979 | 24.86715 | 1167 ft | 128 kts | 346° |
| 2026-04-25 19:38 | 67.67845 | 24.86155 | 975 ft | 128 kts | 346° |
| 2026-04-25 19:38 | 67.68705 | 24.85586 | 756 ft | 128 kts | 346° |
| 2026-04-25 19:38 | 67.69553 | 24.85045 | 640 ft | 115 kts | 346° |
| 2026-04-25 19:39 | 67.70088 | 24.84695 | 641 ft | 46 kts | 346° |
| 2026-04-25 19:39 | 67.70347 | 24.84527 | 639 ft | 36 kts | 346° |
| 2026-04-25 19:39 | 67.70554 | 24.84393 | 646 ft | 24 kts | 346° |
| 2026-04-25 19:39 | 67.70692 | 24.84383 | 640 ft | 20 kts | 31° |
| 2026-04-25 19:40 | 67.70735 | 24.84565 | 641 ft | 7 kts | 75° |
| 2026-04-25 19:40 | 67.70721 | 24.84714 | 646 ft | 6 kts | 135° |
| 2026-04-25 19:40 | 67.70689 | 24.84750 | 640 ft | 5 kts | 165° |
| 2026-04-25 19:40 | 67.70661 | 24.84770 | 640 ft | 4 kts | 165° |
| 2026-04-25 19:41 | 67.70619 | 24.84798 | 640 ft | 13 kts | 166° |
| 2026-04-25 19:41 | 67.70504 | 24.84876 | 639 ft | 18 kts | 165° |
| 2026-04-25 19:41 | 67.70389 | 24.84946 | 642 ft | 16 kts | 166° |
| 2026-04-25 19:41 | 67.70355 | 24.84969 | 643 ft | 16 kts | 166° |
| 2026-04-25 19:42 | 67.70197 | 24.85072 | 640 ft | 12 kts | 166° |
| 2026-04-25 19:42 | 67.70110 | 24.85127 | 641 ft | 16 kts | 166° |
| 2026-04-25 19:42 | 67.70001 | 24.85199 | 641 ft | 16 kts | 166° |
| 2026-04-25 19:42 | 67.69898 | 24.85266 | 641 ft | 15 kts | 166° |
| 2026-04-25 19:43 | 67.69799 | 24.85341 | 637 ft | 14 kts | 162° |
| 2026-04-25 19:43 | 67.69704 | 24.85406 | 637 ft | 14 kts | 166° |
| 2026-04-25 19:43 | 67.69619 | 24.85460 | 639 ft | 11 kts | 166° |
| 2026-04-25 19:43 | 67.69576 | 24.85537 | 641 ft | 2 kts | 91° |
| 2026-04-25 19:44 | 67.69569 | 24.85544 | 639 ft | 1 kts | 175° |
| 2026-04-25 19:44 | 67.69542 | 24.85534 | 639 ft | 7 kts | 175° |
| 2026-04-25 19:44 | 67.69535 | 24.85604 | 640 ft | 3 kts | 82° |
| 2026-04-25 19:44 | 67.69539 | 24.85661 | 640 ft | 3 kts | 76° |
| 2026-04-25 19:45 | 67.69541 | 24.85685 | 640 ft | 0 kts | 76° |